sensor_id;sensor_type;location;lat;lon;timestamp;temperature;humidity
18781;DHT22;9519;51.890;8.970;2022-12-26T00:02:43;11.60;99.90
18781;DHT22;9519;51.890;8.970;2022-12-26T00:07:45;11.50;99.90
18781;DHT22;9519;51.890;8.970;2022-12-26T00:12:48;11.50;99.90
18781;DHT22;9519;51.890;8.970;2022-12-26T00:17:50;11.50;99.90
18781;DHT22;9519;51.890;8.970;2022-12-26T00:22:52;11.40;99.90
18781;DHT22;9519;51.890;8.970;2022-12-26T00:27:56;11.40;99.90
18781;DHT22;9519;51.890;8.970;2022-12-26T00:32:58;11.40;99.90
18781;DHT22;9519;51.890;8.970;2022-12-26T00:38:00;11.40;99.90
18781;DHT22;9519;51.890;8.970;2022-12-26T00:43:04;11.40;99.90
18781;DHT22;9519;51.890;8.970;2022-12-26T00:48:06;11.40;99.90
18781;DHT22;9519;51.890;8.970;2022-12-26T00:53:08;11.40;99.90
18781;DHT22;9519;51.890;8.970;2022-12-26T00:58:11;11.40;99.90
18781;DHT22;9519;51.890;8.970;2022-12-26T01:03:13;11.40;99.90
18781;DHT22;9519;51.890;8.970;2022-12-26T01:08:16;11.40;99.90
18781;DHT22;9519;51.890;8.970;2022-12-26T01:13:20;11.40;99.90
18781;DHT22;9519;51.890;8.970;2022-12-26T01:18:22;11.40;99.90
18781;DHT22;9519;51.890;8.970;2022-12-26T01:23:24;11.40;99.90
18781;DHT22;9519;51.890;8.970;2022-12-26T01:28:28;11.40;99.90
18781;DHT22;9519;51.890;8.970;2022-12-26T01:33:30;11.40;99.90
18781;DHT22;9519;51.890;8.970;2022-12-26T01:38:33;11.40;99.90
18781;DHT22;9519;51.890;8.970;2022-12-26T01:43:49;11.40;99.90
18781;DHT22;9519;51.890;8.970;2022-12-26T01:48:54;11.40;99.90
18781;DHT22;9519;51.890;8.970;2022-12-26T01:54:00;11.30;99.90
18781;DHT22;9519;51.890;8.970;2022-12-26T01:59:07;11.40;99.90
18781;DHT22;9519;51.890;8.970;2022-12-26T02:04:15;11.40;99.90
18781;DHT22;9519;51.890;8.970;2022-12-26T02:09:40;11.40;99.90
18781;DHT22;9519;51.890;8.970;2022-12-26T02:14:44;11.30;99.90
18781;DHT22;9519;51.890;8.970;2022-12-26T02:19:53;11.30;99.90
18781;DHT22;9519;51.890;8.970;2022-12-26T02:25:21;11.30;99.90
18781;DHT22;9519;51.890;8.970;2022-12-26T02:30:42;11.30;99.90
18781;DHT22;9519;51.890;8.970;2022-12-26T02:41:24;11.20;99.90
18781;DHT22;9519;51.890;8.970;2022-12-26T02:46:37;11.20;99.90
18781;DHT22;9519;51.890;8.970;2022-12-26T02:52:11;11.20;99.90
18781;DHT22;9519;51.890;8.970;2022-12-26T02:57:36;11.20;99.90
18781;DHT22;9519;51.890;8.970;2022-12-26T03:03:09;11.10;99.90
18781;DHT22;9519;51.890;8.970;2022-12-26T03:08:35;11.10;99.90
18781;DHT22;9519;51.890;8.970;2022-12-26T03:14:04;11.10;99.90
18781;DHT22;9519;51.890;8.970;2022-12-26T03:19:14;11.10;99.90
18781;DHT22;9519;51.890;8.970;2022-12-26T03:24:16;11.00;99.90
18781;DHT22;9519;51.890;8.970;2022-12-26T03:29:21;11.00;99.90
18781;DHT22;9519;51.890;8.970;2022-12-26T03:34:43;11.10;99.90
18781;DHT22;9519;51.890;8.970;2022-12-26T03:39:50;11.00;99.90
18781;DHT22;9519;51.890;8.970;2022-12-26T03:45:28;11.00;99.90
18781;DHT22;9519;51.890;8.970;2022-12-26T03:50:58;11.00;99.90
18781;DHT22;9519;51.890;8.970;2022-12-26T03:56:30;11.00;99.90
18781;DHT22;9519;51.890;8.970;2022-12-26T04:01:53;11.00;99.90
18781;DHT22;9519;51.890;8.970;2022-12-26T04:07:19;11.00;99.90
18781;DHT22;9519;51.890;8.970;2022-12-26T04:12:43;11.00;99.90
18781;DHT22;9519;51.890;8.970;2022-12-26T04:18:11;11.00;99.90
18781;DHT22;9519;51.890;8.970;2022-12-26T04:23:40;11.00;99.90
18781;DHT22;9519;51.890;8.970;2022-12-26T04:29:03;11.00;99.90
18781;DHT22;9519;51.890;8.970;2022-12-26T04:34:27;11.10;99.90
18781;DHT22;9519;51.890;8.970;2022-12-26T04:39:55;11.00;99.90
18781;DHT22;9519;51.890;8.970;2022-12-26T04:45:18;11.00;99.90
18781;DHT22;9519;51.890;8.970;2022-12-26T04:50:22;11.00;99.90
18781;DHT22;9519;51.890;8.970;2022-12-26T04:55:26;11.00;99.90
18781;DHT22;9519;51.890;8.970;2022-12-26T05:00:29;11.00;99.90
18781;DHT22;9519;51.890;8.970;2022-12-26T05:05:37;11.00;99.90
18781;DHT22;9519;51.890;8.970;2022-12-26T05:11:00;10.90;99.90
18781;DHT22;9519;51.890;8.970;2022-12-26T05:16:02;10.90;99.90
18781;DHT22;9519;51.890;8.970;2022-12-26T05:21:22;10.80;99.90
18781;DHT22;9519;51.890;8.970;2022-12-26T05:26:42;10.80;99.90
18781;DHT22;9519;51.890;8.970;2022-12-26T05:32:02;10.80;99.90
18781;DHT22;9519;51.890;8.970;2022-12-26T05:37:04;10.80;99.90
18781;DHT22;9519;51.890;8.970;2022-12-26T05:42:07;10.80;99.90
18781;DHT22;9519;51.890;8.970;2022-12-26T05:47:10;10.80;99.90
18781;DHT22;9519;51.890;8.970;2022-12-26T05:52:12;10.70;99.90
18781;DHT22;9519;51.890;8.970;2022-12-26T05:57:16;10.80;99.90
18781;DHT22;9519;51.890;8.970;2022-12-26T06:02:18;10.70;99.90
18781;DHT22;9519;51.890;8.970;2022-12-26T06:07:20;10.70;99.90
18781;DHT22;9519;51.890;8.970;2022-12-26T06:12:23;10.70;99.90
18781;DHT22;9519;51.890;8.970;2022-12-26T06:17:25;10.70;99.90
18781;DHT22;9519;51.890;8.970;2022-12-26T06:22:28;10.70;99.90
18781;DHT22;9519;51.890;8.970;2022-12-26T06:27:31;10.70;99.90
18781;DHT22;9519;51.890;8.970;2022-12-26T06:32:33;10.60;99.90
18781;DHT22;9519;51.890;8.970;2022-12-26T06:37:35;10.50;99.90
18781;DHT22;9519;51.890;8.970;2022-12-26T06:42:39;10.50;99.90
18781;DHT22;9519;51.890;8.970;2022-12-26T06:47:41;10.50;99.90
18781;DHT22;9519;51.890;8.970;2022-12-26T06:52:43;10.50;99.90
18781;DHT22;9519;51.890;8.970;2022-12-26T06:57:47;10.50;99.90
18781;DHT22;9519;51.890;8.970;2022-12-26T07:02:51;10.50;99.90
18781;DHT22;9519;51.890;8.970;2022-12-26T07:07:53;10.50;99.90
18781;DHT22;9519;51.890;8.970;2022-12-26T07:12:57;10.50;99.90
18781;DHT22;9519;51.890;8.970;2022-12-26T07:17:59;10.50;99.90
18781;DHT22;9519;51.890;8.970;2022-12-26T07:23:01;10.50;99.90
18781;DHT22;9519;51.890;8.970;2022-12-26T07:28:04;10.50;99.90
18781;DHT22;9519;51.890;8.970;2022-12-26T07:33:06;10.60;99.90
18781;DHT22;9519;51.890;8.970;2022-12-26T07:38:11;10.50;99.90
18781;DHT22;9519;51.890;8.970;2022-12-26T07:43:14;10.50;99.90
18781;DHT22;9519;51.890;8.970;2022-12-26T07:48:17;10.50;99.90
18781;DHT22;9519;51.890;8.970;2022-12-26T07:53:19;10.50;99.90
18781;DHT22;9519;51.890;8.970;2022-12-26T07:58:22;10.50;99.90
18781;DHT22;9519;51.890;8.970;2022-12-26T08:03:24;10.40;99.90
18781;DHT22;9519;51.890;8.970;2022-12-26T08:08:26;10.40;99.90
18781;DHT22;9519;51.890;8.970;2022-12-26T08:13:30;10.40;99.90
18781;DHT22;9519;51.890;8.970;2022-12-26T08:18:33;10.40;99.90
18781;DHT22;9519;51.890;8.970;2022-12-26T08:23:35;10.40;99.90
18781;DHT22;9519;51.890;8.970;2022-12-26T08:28:39;10.40;99.90
18781;DHT22;9519;51.890;8.970;2022-12-26T08:33:41;10.30;99.90
18781;DHT22;9519;51.890;8.970;2022-12-26T08:38:43;10.30;99.90
18781;DHT22;9519;51.890;8.970;2022-12-26T08:43:50;10.30;99.90
18781;DHT22;9519;51.890;8.970;2022-12-26T08:48:53;10.30;99.90
18781;DHT22;9519;51.890;8.970;2022-12-26T08:53:55;10.30;99.90
18781;DHT22;9519;51.890;8.970;2022-12-26T08:58:59;10.30;99.90
18781;DHT22;9519;51.890;8.970;2022-12-26T09:04:02;10.30;99.90
18781;DHT22;9519;51.890;8.970;2022-12-26T09:09:08;10.30;99.90
18781;DHT22;9519;51.890;8.970;2022-12-26T09:14:13;10.30;99.90
18781;DHT22;9519;51.890;8.970;2022-12-26T09:19:15;10.40;99.90
18781;DHT22;9519;51.890;8.970;2022-12-26T09:24:18;10.40;99.90
18781;DHT22;9519;51.890;8.970;2022-12-26T09:29:21;10.40;99.90
18781;DHT22;9519;51.890;8.970;2022-12-26T09:34:23;10.40;99.90
18781;DHT22;9519;51.890;8.970;2022-12-26T09:39:25;10.40;99.90
18781;DHT22;9519;51.890;8.970;2022-12-26T09:44:39;10.50;99.90
18781;DHT22;9519;51.890;8.970;2022-12-26T09:49:54;10.50;99.90
18781;DHT22;9519;51.890;8.970;2022-12-26T09:55:02;10.50;99.90
18781;DHT22;9519;51.890;8.970;2022-12-26T10:00:21;10.50;99.90
18781;DHT22;9519;51.890;8.970;2022-12-26T10:05:37;10.60;99.90
18781;DHT22;9519;51.890;8.970;2022-12-26T10:10:50;10.60;99.90
18781;DHT22;9519;51.890;8.970;2022-12-26T10:16:03;10.70;99.90
18781;DHT22;9519;51.890;8.970;2022-12-26T10:21:28;10.60;99.90
18781;DHT22;9519;51.890;8.970;2022-12-26T10:26:39;10.70;99.90
18781;DHT22;9519;51.890;8.970;2022-12-26T10:31:48;10.70;99.90
18781;DHT22;9519;51.890;8.970;2022-12-26T10:36:58;10.80;99.90
18781;DHT22;9519;51.890;8.970;2022-12-26T10:42:09;10.80;99.90
18781;DHT22;9519;51.890;8.970;2022-12-26T10:47:24;10.80;99.90
18781;DHT22;9519;51.890;8.970;2022-12-26T10:52:31;10.70;99.90
18781;DHT22;9519;51.890;8.970;2022-12-26T10:57:36;10.70;99.90
18781;DHT22;9519;51.890;8.970;2022-12-26T11:02:42;10.70;99.90
18781;DHT22;9519;51.890;8.970;2022-12-26T11:07:48;10.80;99.90
18781;DHT22;9519;51.890;8.970;2022-12-26T11:12:54;10.80;99.90
18781;DHT22;9519;51.890;8.970;2022-12-26T11:18:12;10.80;99.90
18781;DHT22;9519;51.890;8.970;2022-12-26T11:23:22;10.90;99.90
18781;DHT22;9519;51.890;8.970;2022-12-26T11:28:29;10.90;99.90
18781;DHT22;9519;51.890;8.970;2022-12-26T11:33:38;10.90;99.90
18781;DHT22;9519;51.890;8.970;2022-12-26T11:38:47;10.90;99.90
18781;DHT22;9519;51.890;8.970;2022-12-26T11:43:52;10.90;99.90
18781;DHT22;9519;51.890;8.970;2022-12-26T11:48:57;10.90;99.90
18781;DHT22;9519;51.890;8.970;2022-12-26T11:54:19;10.80;99.90
18781;DHT22;9519;51.890;8.970;2022-12-26T11:59:26;10.90;99.90
18781;DHT22;9519;51.890;8.970;2022-12-26T12:04:30;10.80;99.90
18781;DHT22;9519;51.890;8.970;2022-12-26T12:09:36;10.80;99.90
18781;DHT22;9519;51.890;8.970;2022-12-26T12:14:56;10.80;99.90
18781;DHT22;9519;51.890;8.970;2022-12-26T12:20:26;10.80;99.90
18781;DHT22;9519;51.890;8.970;2022-12-26T12:25:51;10.80;99.90
18781;DHT22;9519;51.890;8.970;2022-12-26T12:31:06;10.80;99.90
18781;DHT22;9519;51.890;8.970;2022-12-26T12:36:26;10.80;99.90
18781;DHT22;9519;51.890;8.970;2022-12-26T12:41:48;10.70;99.90
18781;DHT22;9519;51.890;8.970;2022-12-26T12:47:09;10.60;99.90
18781;DHT22;9519;51.890;8.970;2022-12-26T12:52:33;10.60;99.90
18781;DHT22;9519;51.890;8.970;2022-12-26T12:57:49;10.50;99.90
18781;DHT22;9519;51.890;8.970;2022-12-26T13:02:58;10.50;99.90
18781;DHT22;9519;51.890;8.970;2022-12-26T13:08:11;10.50;99.90
18781;DHT22;9519;51.890;8.970;2022-12-26T13:13:25;10.40;99.90
18781;DHT22;9519;51.890;8.970;2022-12-26T13:18:33;10.40;99.90
18781;DHT22;9519;51.890;8.970;2022-12-26T13:23:44;10.40;99.90
18781;DHT22;9519;51.890;8.970;2022-12-26T13:29:19;10.40;99.90
18781;DHT22;9519;51.890;8.970;2022-12-26T13:34:32;10.40;99.90
18781;DHT22;9519;51.890;8.970;2022-12-26T13:39:37;10.40;99.90
18781;DHT22;9519;51.890;8.970;2022-12-26T13:44:41;10.40;99.90
18781;DHT22;9519;51.890;8.970;2022-12-26T13:49:43;10.50;99.90
18781;DHT22;9519;51.890;8.970;2022-12-26T14:00:41;10.60;99.90
18781;DHT22;9519;51.890;8.970;2022-12-26T14:12:06;10.60;99.90
18781;DHT22;9519;51.890;8.970;2022-12-26T14:17:24;10.30;99.90
18781;DHT22;9519;51.890;8.970;2022-12-26T14:22:40;10.10;99.90
18781;DHT22;9519;51.890;8.970;2022-12-26T14:27:59;9.80;99.90
18781;DHT22;9519;51.890;8.970;2022-12-26T14:33:18;9.70;99.90
18781;DHT22;9519;51.890;8.970;2022-12-26T14:38:39;9.60;99.90
18781;DHT22;9519;51.890;8.970;2022-12-26T14:43:48;9.60;99.90
18781;DHT22;9519;51.890;8.970;2022-12-26T14:48:54;9.50;99.90
18781;DHT22;9519;51.890;8.970;2022-12-26T14:54:33;9.40;99.90
18781;DHT22;9519;51.890;8.970;2022-12-26T14:59:39;9.30;99.90
18781;DHT22;9519;51.890;8.970;2022-12-26T15:04:59;8.90;99.90
18781;DHT22;9519;51.890;8.970;2022-12-26T15:16:29;8.40;99.90
18781;DHT22;9519;51.890;8.970;2022-12-26T15:22:12;8.20;99.90
18781;DHT22;9519;51.890;8.970;2022-12-26T15:27:47;8.00;99.90
18781;DHT22;9519;51.890;8.970;2022-12-26T15:33:11;7.80;99.90
18781;DHT22;9519;51.890;8.970;2022-12-26T15:38:30;7.70;99.90
18781;DHT22;9519;51.890;8.970;2022-12-26T15:43:59;7.50;99.90
18781;DHT22;9519;51.890;8.970;2022-12-26T15:49:27;7.40;99.90
18781;DHT22;9519;51.890;8.970;2022-12-26T15:55:02;7.30;99.90
18781;DHT22;9519;51.890;8.970;2022-12-26T16:00:31;7.20;99.90
18781;DHT22;9519;51.890;8.970;2022-12-26T16:05:59;7.20;99.90
18781;DHT22;9519;51.890;8.970;2022-12-26T16:11:22;7.10;99.90
18781;DHT22;9519;51.890;8.970;2022-12-26T16:16:29;7.00;99.90
18781;DHT22;9519;51.890;8.970;2022-12-26T16:21:34;7.00;99.90
18781;DHT22;9519;51.890;8.970;2022-12-26T16:26:54;6.90;99.90
18781;DHT22;9519;51.890;8.970;2022-12-26T16:32:03;6.90;99.90
18781;DHT22;9519;51.890;8.970;2022-12-26T16:37:09;6.90;99.90
18781;DHT22;9519;51.890;8.970;2022-12-26T16:42:28;6.90;99.90
18781;DHT22;9519;51.890;8.970;2022-12-26T16:47:31;6.90;99.90
18781;DHT22;9519;51.890;8.970;2022-12-26T16:52:36;6.90;99.90
18781;DHT22;9519;51.890;8.970;2022-12-26T16:57:40;6.90;99.90
18781;DHT22;9519;51.890;8.970;2022-12-26T17:02:45;6.90;99.90
18781;DHT22;9519;51.890;8.970;2022-12-26T17:07:52;6.80;99.90
18781;DHT22;9519;51.890;8.970;2022-12-26T17:12:58;6.80;99.90
18781;DHT22;9519;51.890;8.970;2022-12-26T17:18:35;6.80;99.90
18781;DHT22;9519;51.890;8.970;2022-12-26T17:23:43;6.80;99.90
18781;DHT22;9519;51.890;8.970;2022-12-26T17:28:46;6.80;99.90
18781;DHT22;9519;51.890;8.970;2022-12-26T17:33:48;6.80;99.90
18781;DHT22;9519;51.890;8.970;2022-12-26T17:38:52;7.10;99.90
18781;DHT22;9519;51.890;8.970;2022-12-26T17:43:54;6.80;99.90
18781;DHT22;9519;51.890;8.970;2022-12-26T17:48:57;6.70;99.90
18781;DHT22;9519;51.890;8.970;2022-12-26T17:54:01;6.80;99.90
18781;DHT22;9519;51.890;8.970;2022-12-26T17:59:03;6.80;99.90
18781;DHT22;9519;51.890;8.970;2022-12-26T18:04:05;6.80;99.90
18781;DHT22;9519;51.890;8.970;2022-12-26T18:09:21;6.80;99.90
18781;DHT22;9519;51.890;8.970;2022-12-26T18:14:25;6.80;99.90
18781;DHT22;9519;51.890;8.970;2022-12-26T18:19:27;6.80;99.90
18781;DHT22;9519;51.890;8.970;2022-12-26T18:24:30;6.80;99.90
18781;DHT22;9519;51.890;8.970;2022-12-26T18:29:33;6.80;99.90
18781;DHT22;9519;51.890;8.970;2022-12-26T18:34:35;6.80;99.90
18781;DHT22;9519;51.890;8.970;2022-12-26T18:39:38;6.90;99.90
18781;DHT22;9519;51.890;8.970;2022-12-26T18:44:41;6.70;99.90
18781;DHT22;9519;51.890;8.970;2022-12-26T18:49:45;6.60;99.90
18781;DHT22;9519;51.890;8.970;2022-12-26T18:54:49;6.20;99.90
18781;DHT22;9519;51.890;8.970;2022-12-26T18:59:51;6.40;99.90
18781;DHT22;9519;51.890;8.970;2022-12-26T19:04:53;6.30;99.90
18781;DHT22;9519;51.890;8.970;2022-12-26T19:09:56;6.00;99.90
18781;DHT22;9519;51.890;8.970;2022-12-26T19:15:00;5.70;99.90
18781;DHT22;9519;51.890;8.970;2022-12-26T19:20:04;5.70;99.90
18781;DHT22;9519;51.890;8.970;2022-12-26T19:25:09;5.60;99.90
18781;DHT22;9519;51.890;8.970;2022-12-26T19:30:11;5.50;99.90
18781;DHT22;9519;51.890;8.970;2022-12-26T19:35:15;5.00;99.90
18781;DHT22;9519;51.890;8.970;2022-12-26T19:40:19;5.40;99.90
18781;DHT22;9519;51.890;8.970;2022-12-26T19:45:21;4.90;99.90
18781;DHT22;9519;51.890;8.970;2022-12-26T19:50:23;5.10;99.90
18781;DHT22;9519;51.890;8.970;2022-12-26T19:55:27;5.40;99.90
18781;DHT22;9519;51.890;8.970;2022-12-26T20:00:29;5.00;99.90
18781;DHT22;9519;51.890;8.970;2022-12-26T20:05:31;5.20;99.90
18781;DHT22;9519;51.890;8.970;2022-12-26T20:10:34;5.30;99.90
18781;DHT22;9519;51.890;8.970;2022-12-26T20:15:37;5.40;99.90
18781;DHT22;9519;51.890;8.970;2022-12-26T20:20:39;5.20;99.90
18781;DHT22;9519;51.890;8.970;2022-12-26T20:25:42;4.90;99.90
18781;DHT22;9519;51.890;8.970;2022-12-26T20:30:44;5.00;99.90
18781;DHT22;9519;51.890;8.970;2022-12-26T20:35:46;5.00;99.90
18781;DHT22;9519;51.890;8.970;2022-12-26T20:40:50;4.90;99.90
18781;DHT22;9519;51.890;8.970;2022-12-26T20:45:52;5.10;99.90
18781;DHT22;9519;51.890;8.970;2022-12-26T20:50:55;4.80;99.90
18781;DHT22;9519;51.890;8.970;2022-12-26T20:56:00;4.60;99.90
18781;DHT22;9519;51.890;8.970;2022-12-26T21:01:04;4.70;99.90
18781;DHT22;9519;51.890;8.970;2022-12-26T21:06:08;4.60;99.90
18781;DHT22;9519;51.890;8.970;2022-12-26T21:11:15;4.70;99.90
18781;DHT22;9519;51.890;8.970;2022-12-26T21:16:22;4.60;99.90
18781;DHT22;9519;51.890;8.970;2022-12-26T21:21:28;4.60;99.90
18781;DHT22;9519;51.890;8.970;2022-12-26T21:26:35;4.40;99.90
18781;DHT22;9519;51.890;8.970;2022-12-26T21:31:39;4.80;99.90
18781;DHT22;9519;51.890;8.970;2022-12-26T21:36:41;4.80;99.90
18781;DHT22;9519;51.890;8.970;2022-12-26T21:42:07;4.50;99.90
18781;DHT22;9519;51.890;8.970;2022-12-26T21:47:10;4.60;99.90
18781;DHT22;9519;51.890;8.970;2022-12-26T21:52:12;4.50;99.90
18781;DHT22;9519;51.890;8.970;2022-12-26T21:57:15;4.40;99.90
18781;DHT22;9519;51.890;8.970;2022-12-26T22:02:18;4.60;99.90
18781;DHT22;9519;51.890;8.970;2022-12-26T22:07:37;4.40;99.90
18781;DHT22;9519;51.890;8.970;2022-12-26T22:12:41;4.30;99.90
18781;DHT22;9519;51.890;8.970;2022-12-26T22:17:58;4.10;99.90
18781;DHT22;9519;51.890;8.970;2022-12-26T22:28:04;4.00;99.90
18781;DHT22;9519;51.890;8.970;2022-12-26T22:33:06;4.20;99.90
18781;DHT22;9519;51.890;8.970;2022-12-26T22:38:08;4.40;99.90
18781;DHT22;9519;51.890;8.970;2022-12-26T22:43:12;4.20;99.90
18781;DHT22;9519;51.890;8.970;2022-12-26T22:48:14;4.60;99.90
18781;DHT22;9519;51.890;8.970;2022-12-26T22:53:16;4.10;99.90
18781;DHT22;9519;51.890;8.970;2022-12-26T22:58:22;4.30;99.90
18781;DHT22;9519;51.890;8.970;2022-12-26T23:03:25;4.80;99.90
18781;DHT22;9519;51.890;8.970;2022-12-26T23:08:28;4.20;99.90
18781;DHT22;9519;51.890;8.970;2022-12-26T23:13:33;4.00;99.90
18781;DHT22;9519;51.890;8.970;2022-12-26T23:18:41;4.50;99.90
18781;DHT22;9519;51.890;8.970;2022-12-26T23:24:04;4.30;99.90
18781;DHT22;9519;51.890;8.970;2022-12-26T23:29:10;4.30;99.90
18781;DHT22;9519;51.890;8.970;2022-12-26T23:39:34;4.20;99.90
18781;DHT22;9519;51.890;8.970;2022-12-26T23:44:37;4.00;99.90
18781;DHT22;9519;51.890;8.970;2022-12-26T23:49:39;4.10;99.90
18781;DHT22;9519;51.890;8.970;2022-12-26T23:54:41;3.90;99.90
18781;DHT22;9519;51.890;8.970;2022-12-26T23:59:45;4.20;99.90
